Time;durP1;ratioP1;P1;durP2;ratioP2;P2;SDS_P1;SDS_P2;PMS_P1;PMS_P2;Temp;Humidity;BMP_temperature;BMP_pressure;BME280_temperature;BME280_humidity;BME280_pressure;Samples;Min_cycle;Max_cycle;Signal;HPM_P1;HPM_P2
2022/06/20 00:00:28;;;;;;;;;;;;;;;15.70;45.60;95044.38;5074250;28;20505;-68
2022/06/20 00:02:54;;;;;;;;;;;;;;;15.71;45.49;95046.00;5063600;28;19990;-67
2022/06/20 00:05:21;;;;;;;;;;;;;;;16.02;44.66;95037.19;5065730;28;20496;-68
2022/06/20 00:07:46;;;;;;;;;;;;;;;16.26;43.64;95040.78;5052958;28;20094;-68
2022/06/20 00:10:11;;;;;;;;;;;;;;;16.13;44.43;95049.84;5065732;28;20216;-67
2022/06/20 00:12:36;;;;;;;;;;;;;;;16.32;43.65;95055.97;5043789;28;19957;-68
2022/06/20 00:15:02;;;;;;;;;;;;;;;15.83;44.83;95037.22;5065386;28;20039;-68
2022/06/20 00:17:27;;;;;;;;;;;;;;;16.34;43.57;95021.66;5047411;28;20070;-68
2022/06/20 00:19:52;;;;;;;;;;;;;;;16.52;43.04;95018.09;5064258;28;19979;-66
2022/06/20 00:22:18;;;;;;;;;;;;;;;16.69;42.46;95005.88;5057296;28;20144;-68
2022/06/20 00:24:43;;;;;;;;;;;;;;;16.11;43.58;95007.09;5065501;28;20062;-68
2022/06/20 00:27:08;;;;;;;;;;;;;;;16.27;43.11;94999.44;5065636;28;20420;-66
2022/06/20 00:29:34;;;;;;;;;;;;;;;16.46;42.25;94992.16;5037699;28;20520;-67
2022/06/20 00:31:59;;;;;;;;;;;;;;;16.74;41.47;94992.53;5046611;28;19969;-66
2022/06/20 00:34:25;;;;;;;;;;;;;;;16.87;41.14;95016.50;5065575;28;20010;-71
2022/06/20 00:36:50;;;;;;;;;;;;;;;16.90;40.77;95020.59;5064645;28;19997;-68
2022/06/20 00:39:15;;;;;;;;;;;;;;;16.33;41.97;95017.34;5065351;28;19985;-67
2022/06/20 00:41:40;;;;;;;;;;;;;;;15.83;43.46;95021.09;5042177;28;20045;-67
2022/06/20 00:44:08;;;;;;;;;;;;;;;15.34;44.31;95022.66;5037510;28;20519;-68
2022/06/20 00:46:35;;;;;;;;;;;;;;;15.91;43.04;95030.72;5046793;28;19986;-67
2022/06/20 00:49:02;;;;;;;;;;;;;;;15.58;43.59;95033.59;5064934;28;20051;-67
2022/06/20 00:51:30;;;;;;;;;;;;;;;15.78;43.14;95020.97;5042628;28;20279;-68
2022/06/20 00:54:22;;;;;;;;;;;;;;;16.26;42.01;95016.63;5056035;28;19992;-67
2022/06/20 00:56:53;;;;;;;;;;;;;;;16.60;41.12;95022.34;5047400;28;19966;-68
2022/06/20 00:59:25;;;;;;;;;;;;;;;16.29;41.68;95023.38;5080314;28;20465;-68
2022/06/20 01:01:51;;;;;;;;;;;;;;;16.57;41.21;95009.34;5064709;28;19988;-68
2022/06/20 01:04:29;;;;;;;;;;;;;;;16.22;41.85;95000.13;5046997;28;20517;-66
2022/06/20 01:06:55;;;;;;;;;;;;;;;16.08;42.08;95002.19;5046855;28;20460;-68
2022/06/20 01:09:21;;;;;;;;;;;;;;;16.21;41.79;94998.50;5064658;28;19989;-68
2022/06/20 01:11:50;;;;;;;;;;;;;;;16.59;40.84;95004.56;5046753;28;19969;-67
2022/06/20 01:14:21;;;;;;;;;;;;;;;16.73;40.38;95109.97;5064148;28;19986;-67
2022/06/20 01:16:46;;;;;;;;;;;;;;;12.18;51.82;95413.41;5064785;28;20001;-63
2022/06/20 01:19:13;;;;;;;;;;;;;;;9.76;64.50;95494.34;5074103;28;20012;-65
2022/06/20 01:21:38;;;;;;;;;;;;;;;8.63;95.73;95336.03;5069200;28;20304;-64
2022/06/20 01:24:03;;;;;;;;;;;;;;;9.05;76.94;95172.06;5065432;28;19968;-63
2022/06/20 01:26:38;;;;;;;;;;;;;;;9.25;72.95;95288.41;5054917;28;19991;-63
2022/06/20 01:29:04;;;;;;;;;;;;;;;9.70;70.35;95317.78;5061827;28;20448;-64
2022/06/20 01:31:30;;;;;;;;;;;;;;;10.16;72.38;95316.84;5055812;28;20418;-64
2022/06/20 01:33:55;;;;;;;;;;;;;;;10.54;69.70;95302.63;5071487;28;19999;-64
2022/06/20 01:39:05;;;;;;;;;;;;;;;11.59;68.01;95306.81;5038288;28;20003;-63
2022/06/20 01:44:14;;;;;;;;;;;;;;;11.99;66.66;95158.75;5048730;28;19971;-65
2022/06/20 01:46:40;;;;;;;;;;;;;;;12.08;68.45;95204.81;5040955;28;20376;-65
2022/06/20 01:49:08;;;;;;;;;;;;;;;12.58;69.88;95199.22;5053399;28;19996;-65
2022/06/20 01:52:09;;;;;;;;;;;;;;;13.02;69.71;95241.72;5045344;28;19969;-65
2022/06/20 01:54:36;;;;;;;;;;;;;;;13.28;64.07;95283.69;5000375;28;20024;-65
2022/06/20 01:57:02;;;;;;;;;;;;;;;12.93;62.60;95295.28;5050107;28;20007;-65
2022/06/20 01:59:46;;;;;;;;;;;;;;;11.66;64.07;95282.88;5045153;28;20034;-65
2022/06/20 02:02:12;;;;;;;;;;;;;;;11.08;65.51;95271.28;5057524;28;19993;-65
2022/06/20 02:04:37;;;;;;;;;;;;;;;10.78;66.02;95268.69;5044234;28;20022;-60
2022/06/20 02:07:04;;;;;;;;;;;;;;;10.66;69.22;95113.97;5045422;28;20280;-60
2022/06/20 02:09:30;;;;;;;;;;;;;;;10.30;71.86;95021.72;5033954;28;19989;-63
2022/06/20 02:11:55;;;;;;;;;;;;;;;10.79;68.77;94929.56;5064120;28;19969;-59
2022/06/20 02:14:25;;;;;;;;;;;;;;;9.63;69.19;94849.91;5064623;28;20098;-59
2022/06/20 02:16:58;;;;;;;;;;;;;;;9.02;70.88;94792.72;5051018;28;20027;-59
2022/06/20 02:19:25;;;;;;;;;;;;;;;8.59;74.49;94843.84;5058405;28;19993;-59
2022/06/20 02:21:51;;;;;;;;;;;;;;;9.76;70.21;94938.75;5076179;28;20384;-58
2022/06/20 02:24:17;;;;;;;;;;;;;;;10.84;69.56;95027.47;5063516;28;19975;-59
2022/06/20 02:26:43;;;;;;;;;;;;;;;9.32;71.01;95101.56;5046463;28;20537;-58
2022/06/20 02:29:24;;;;;;;;;;;;;;;11.37;65.09;95144.28;5046558;28;19985;-57
2022/06/20 02:31:55;;;;;;;;;;;;;;;11.76;64.05;95118.03;5046593;28;20055;-59
2022/06/20 02:34:21;;;;;;;;;;;;;;;12.17;63.84;95077.38;5052905;28;19992;-58
2022/06/20 02:36:46;;;;;;;;;;;;;;;12.64;62.53;95066.75;5079393;28;20000;-58
2022/06/20 02:39:11;;;;;;;;;;;;;;;13.08;63.47;95074.41;5076856;28;19987;-59
2022/06/20 02:41:37;;;;;;;;;;;;;;;13.08;60.61;95072.53;5045086;28;19984;-59
2022/06/20 02:44:05;;;;;;;;;;;;;;;13.37;62.08;95073.13;5067969;28;19971;-60
2022/06/20 02:46:31;;;;;;;;;;;;;;;13.55;59.46;95052.91;5040822;28;19993;-59
2022/06/20 02:48:56;;;;;;;;;;;;;;;13.70;61.33;95066.00;5064243;28;20433;-60
2022/06/20 02:51:24;;;;;;;;;;;;;;;13.41;60.80;95058.31;5044844;28;19972;-60
2022/06/20 02:53:50;;;;;;;;;;;;;;;13.62;56.54;95040.34;5059922;28;20015;-60
2022/06/20 02:56:16;;;;;;;;;;;;;;;13.86;59.22;95035.28;5072839;28;20333;-60
2022/06/20 02:58:57;;;;;;;;;;;;;;;14.09;59.62;95031.31;5080544;28;19999;-59
2022/06/20 03:01:36;;;;;;;;;;;;;;;14.25;61.37;95000.53;5066680;28;20489;-60
2022/06/20 03:04:01;;;;;;;;;;;;;;;14.22;58.43;94971.50;5045470;28;19972;-62
2022/06/20 03:06:29;;;;;;;;;;;;;;;14.45;60.58;94954.03;5063043;28;20007;-59
2022/06/20 03:08:54;;;;;;;;;;;;;;;14.60;61.37;94926.91;5065032;28;19992;-59
2022/06/20 03:11:19;;;;;;;;;;;;;;;14.71;60.51;94926.19;5049274;28;20638;-59
2022/06/20 03:13:46;;;;;;;;;;;;;;;14.71;59.54;94923.50;5056075;28;19989;-58
2022/06/20 03:16:11;;;;;;;;;;;;;;;14.82;60.37;94926.53;5066887;28;19969;-60
2022/06/20 03:18:38;;;;;;;;;;;;;;;14.80;56.43;94912.53;5061034;28;20003;-59
2022/06/20 03:21:03;;;;;;;;;;;;;;;14.91;59.58;94914.47;5067085;28;20420;-59
2022/06/20 03:23:29;;;;;;;;;;;;;;;14.89;57.30;94910.38;5079684;28;20333;-60
2022/06/20 03:25:55;;;;;;;;;;;;;;;15.01;59.35;94918.47;5067262;28;19992;-60
2022/06/20 03:28:21;;;;;;;;;;;;;;;15.06;59.34;94899.88;5049270;28;19977;-60
2022/06/20 03:30:46;;;;;;;;;;;;;;;15.08;57.15;94893.25;5049390;28;20404;-60
2022/06/20 03:33:13;;;;;;;;;;;;;;;15.18;59.29;94890.03;5046259;28;19999;-60
2022/06/20 03:35:39;;;;;;;;;;;;;;;15.20;59.34;94887.94;5051625;28;19961;-60
2022/06/20 03:38:04;;;;;;;;;;;;;;;15.05;57.67;94893.69;5066585;28;20511;-60
2022/06/20 03:40:30;;;;;;;;;;;;;;;15.12;60.17;94856.09;5048610;28;19977;-60
2022/06/20 03:42:55;;;;;;;;;;;;;;;15.22;58.90;94847.50;5066681;28;20045;-60
2022/06/20 03:45:21;;;;;;;;;;;;;;;15.17;57.91;94850.06;5062845;28;20418;-59
2022/06/20 03:47:51;;;;;;;;;;;;;;;15.27;58.72;94879.00;5067029;28;20507;-60
2022/06/20 03:50:19;;;;;;;;;;;;;;;15.32;56.77;94889.84;5066190;28;20592;-60
2022/06/20 03:52:50;;;;;;;;;;;;;;;15.24;58.18;94886.44;5048133;28;20013;-61
2022/06/20 03:55:29;;;;;;;;;;;;;;;15.08;56.03;94881.69;5065707;28;19961;-61
2022/06/20 03:57:55;;;;;;;;;;;;;;;15.20;59.03;94884.47;5065936;28;20424;-60
2022/06/20 04:00:38;;;;;;;;;;;;;;;15.24;58.16;94905.22;5062759;28;19991;-60
2022/06/20 04:03:13;;;;;;;;;;;;;;;14.51;53.22;94952.34;5065274;28;20443;-60
2022/06/20 04:05:41;;;;;;;;;;;;;;;13.50;62.90;94988.56;5041972;28;19995;-60
2022/06/20 04:08:09;;;;;;;;;;;;;;;14.32;59.75;94997.81;5066552;28;19968;-60
2022/06/20 04:10:59;;;;;;;;;;;;;;;14.82;59.71;95034.50;5065138;28;20080;-60
2022/06/20 04:13:24;;;;;;;;;;;;;;;14.00;54.01;95056.69;5061310;28;19989;-60
2022/06/20 04:15:51;;;;;;;;;;;;;;;14.31;60.44;95071.94;5052533;28;19972;-60
2022/06/20 04:18:29;;;;;;;;;;;;;;;14.71;56.98;95096.81;5065315;28;19989;-61
2022/06/20 04:21:13;;;;;;;;;;;;;;;14.53;53.65;95101.06;5048401;28;20527;-60
2022/06/20 04:23:50;;;;;;;;;;;;;;;14.46;55.13;95122.50;5065436;28;20144;-60
2022/06/20 04:26:17;;;;;;;;;;;;;;;14.07;54.66;95162.66;5065227;28;20333;-59
2022/06/20 04:28:42;;;;;;;;;;;;;;;13.98;57.50;95169.28;5065254;28;20427;-60
2022/06/20 04:31:30;;;;;;;;;;;;;;;14.15;56.69;95172.31;5056379;28;19989;-61
2022/06/20 04:34:16;;;;;;;;;;;;;;;13.67;57.53;95174.25;5051359;28;20604;-61
2022/06/20 04:37:00;;;;;;;;;;;;;;;13.48;58.70;95143.84;5054849;28;20556;-60
2022/06/20 04:39:37;;;;;;;;;;;;;;;12.31;61.70;95075.56;5065680;28;20267;-59
2022/06/20 04:42:09;;;;;;;;;;;;;;;11.84;61.47;94937.53;5047579;28;20196;-61
2022/06/20 04:44:36;;;;;;;;;;;;;;;11.90;62.68;94953.53;5048214;28;20030;-60
2022/06/20 04:47:20;;;;;;;;;;;;;;;12.07;62.10;95040.41;5047244;28;20415;-60
2022/06/20 04:49:45;;;;;;;;;;;;;;;12.30;61.10;95084.59;5065731;28;19985;-59
2022/06/20 04:52:12;;;;;;;;;;;;;;;12.28;61.83;95068.78;5065523;28;20423;-61
2022/06/20 04:54:37;;;;;;;;;;;;;;;11.74;63.07;95060.59;5044300;28;19997;-60
2022/06/20 04:57:03;;;;;;;;;;;;;;;11.63;63.32;95093.97;5057075;28;19984;-59
2022/06/20 04:59:29;;;;;;;;;;;;;;;10.83;65.44;95100.38;5066513;28;20091;-59
2022/06/20 05:01:55;;;;;;;;;;;;;;;10.22;67.08;95102.47;5067278;28;20071;-59
2022/06/20 05:04:22;;;;;;;;;;;;;;;9.95;68.54;95124.25;5082245;28;20368;-59
2022/06/20 05:06:48;;;;;;;;;;;;;;;9.78;68.91;95150.22;5041359;28;20591;-59
2022/06/20 05:09:18;;;;;;;;;;;;;;;9.73;69.46;95163.25;5063949;28;19984;-59
2022/06/20 05:11:47;;;;;;;;;;;;;;;9.89;68.76;95177.34;5042008;28;19965;-60
2022/06/20 05:14:28;;;;;;;;;;;;;;;10.30;66.95;95186.69;5079137;28;20521;-60
2022/06/20 05:16:53;;;;;;;;;;;;;;;10.33;66.74;95170.31;5040946;28;20285;-59
2022/06/20 05:19:23;;;;;;;;;;;;;;;10.64;65.71;95133.81;5081822;28;20374;-59
2022/06/20 05:21:49;;;;;;;;;;;;;;;10.09;67.48;95119.94;5065143;28;20087;-61
2022/06/20 05:24:15;;;;;;;;;;;;;;;9.76;68.04;95124.84;5048015;28;19971;-59
2022/06/20 05:26:41;;;;;;;;;;;;;;;10.00;67.65;95136.16;5065205;28;20364;-60
2022/06/20 05:29:07;;;;;;;;;;;;;;;10.17;67.34;95152.78;5065365;28;20415;-58
2022/06/20 05:31:32;;;;;;;;;;;;;;;10.41;66.25;95174.72;5081726;28;19969;-60
2022/06/20 05:33:59;;;;;;;;;;;;;;;10.74;64.94;95211.50;5057429;28;19996;-59
2022/06/20 05:36:26;;;;;;;;;;;;;;;11.04;63.69;95227.38;5071553;28;20543;-60
2022/06/20 05:38:52;;;;;;;;;;;;;;;11.06;63.64;95225.38;5046088;28;20046;-61
2022/06/20 05:41:17;;;;;;;;;;;;;;;10.36;65.34;95239.97;5037060;28;20465;-60
2022/06/20 05:43:43;;;;;;;;;;;;;;;10.02;66.86;95241.34;5040409;28;19985;-61
2022/06/20 05:46:34;;;;;;;;;;;;;;;9.71;68.25;95242.34;5045336;28;20383;-60
2022/06/20 05:49:03;;;;;;;;;;;;;;;9.90;67.72;95226.88;5042053;28;20413;-59
2022/06/20 05:51:29;;;;;;;;;;;;;;;10.47;65.26;95219.19;5040506;28;20015;-60
2022/06/20 05:53:55;;;;;;;;;;;;;;;9.94;66.55;95207.72;5042103;28;20010;-60
2022/06/20 05:56:25;;;;;;;;;;;;;;;10.47;65.47;95193.41;5033992;28;19974;-60
2022/06/20 05:58:50;;;;;;;;;;;;;;;10.82;64.51;95186.63;5068946;28;20047;-60
2022/06/20 06:01:16;;;;;;;;;;;;;;;11.16;63.28;95171.78;5032159;28;19997;-60
2022/06/20 06:03:56;;;;;;;;;;;;;;;11.32;62.24;95170.66;5036323;28;19973;-59
2022/06/20 06:06:23;;;;;;;;;;;;;;;10.98;63.23;95146.41;5029117;28;20091;-60
2022/06/20 06:08:48;;;;;;;;;;;;;;;10.84;63.49;95131.31;5031239;28;19977;-60
2022/06/20 06:11:18;;;;;;;;;;;;;;;10.85;63.71;95130.31;5044469;28;20068;-60
2022/06/20 06:14:03;;;;;;;;;;;;;;;11.58;61.11;95137.22;5041959;28;20012;-61
2022/06/20 06:19:31;;;;;;;;;;;;;;;11.08;62.43;95132.75;5033028;28;20008;-59
2022/06/20 06:22:00;;;;;;;;;;;;;;;10.69;63.73;95129.56;5030837;28;19989;-60
2022/06/20 06:24:25;;;;;;;;;;;;;;;10.11;65.01;95133.06;5043441;28;20019;-60
2022/06/20 06:26:52;;;;;;;;;;;;;;;9.90;66.00;95147.94;5032551;28;20410;-59
2022/06/20 06:29:20;;;;;;;;;;;;;;;10.03;65.31;95152.56;5023014;28;20079;-60
2022/06/20 06:31:46;;;;;;;;;;;;;;;9.52;67.18;95145.38;5028114;28;20216;-60
2022/06/20 06:34:20;;;;;;;;;;;;;;;9.63;66.86;95147.56;5037739;28;19993;-60
2022/06/20 06:36:56;;;;;;;;;;;;;;;9.97;66.03;95155.97;5049015;28;19997;-60
2022/06/20 06:39:36;;;;;;;;;;;;;;;10.05;64.91;95171.88;5050235;28;20011;-60
2022/06/20 06:42:03;;;;;;;;;;;;;;;9.64;66.86;95178.47;5045241;28;20471;-60
2022/06/20 06:44:42;;;;;;;;;;;;;;;9.81;66.10;95178.25;5068411;28;20244;-59
2022/06/20 06:47:14;;;;;;;;;;;;;;;9.51;67.35;95176.44;5050917;28;20134;-59
2022/06/20 06:49:44;;;;;;;;;;;;;;;9.49;67.55;95164.34;5043309;28;19993;-61
2022/06/20 06:52:16;;;;;;;;;;;;;;;9.28;68.37;95163.22;5063205;28;19972;-60
2022/06/20 06:54:41;;;;;;;;;;;;;;;9.11;68.83;95149.25;5058427;28;19991;-60
2022/06/20 06:57:21;;;;;;;;;;;;;;;8.98;69.23;95149.88;5056531;28;19977;-59
2022/06/20 06:59:48;;;;;;;;;;;;;;;8.79;68.73;95151.97;5055028;28;20110;-60
2022/06/20 07:02:20;;;;;;;;;;;;;;;8.45;70.54;95156.69;5063463;28;20158;-59
2022/06/20 07:04:57;;;;;;;;;;;;;;;8.92;69.37;95148.72;5060275;28;19961;-59
2022/06/20 07:07:29;;;;;;;;;;;;;;;9.38;68.18;95150.47;5060564;28;19988;-60
2022/06/20 07:09:54;;;;;;;;;;;;;;;9.43;67.84;95152.59;5076982;28;19993;-59
2022/06/20 07:12:23;;;;;;;;;;;;;;;9.75;66.96;95152.44;5061450;28;19976;-60
2022/06/20 07:14:59;;;;;;;;;;;;;;;10.05;65.73;95149.72;5057528;28;19997;-59
2022/06/20 07:17:40;;;;;;;;;;;;;;;9.99;65.60;95151.28;5076273;28;20038;-60
2022/06/20 07:20:06;;;;;;;;;;;;;;;10.43;64.33;95156.72;5074186;28;19985;-60
2022/06/20 07:22:31;;;;;;;;;;;;;;;10.54;63.70;95147.44;5057199;28;20054;-59
2022/06/20 07:24:56;;;;;;;;;;;;;;;10.80;61.94;95164.66;5057734;28;20026;-62
2022/06/20 07:27:22;;;;;;;;;;;;;;;10.72;62.56;95173.63;5057622;28;20442;-61
2022/06/20 07:30:10;;;;;;;;;;;;;;;11.03;61.02;95167.13;5054109;28;20419;-61
2022/06/20 07:32:46;;;;;;;;;;;;;;;11.71;58.80;95179.13;5051049;28;19997;-61
2022/06/20 07:35:13;;;;;;;;;;;;;;;11.96;58.87;95191.16;5063762;28;20016;-61
2022/06/20 07:37:41;;;;;;;;;;;;;;;11.88;58.12;95197.47;5045595;28;20035;-60
2022/06/20 07:40:12;;;;;;;;;;;;;;;12.42;56.51;95185.22;5066094;28;19985;-60
2022/06/20 07:42:46;;;;;;;;;;;;;;;12.53;57.23;95191.84;5052153;28;19996;-60
2022/06/20 07:45:12;;;;;;;;;;;;;;;12.65;55.55;95184.06;5050738;28;20458;-60
2022/06/20 07:47:39;;;;;;;;;;;;;;;13.44;54.51;95180.06;5045765;28;19965;-61
2022/06/20 07:50:09;;;;;;;;;;;;;;;13.82;53.18;95189.25;5036847;28;20062;-62
2022/06/20 07:52:41;;;;;;;;;;;;;;;13.71;52.21;95196.06;5041267;28;20037;-60
2022/06/20 07:55:19;;;;;;;;;;;;;;;13.90;52.58;95204.31;5061442;28;20053;-60
2022/06/20 07:57:45;;;;;;;;;;;;;;;13.77;52.89;95215.81;5059087;28;19988;-60
2022/06/20 08:00:22;;;;;;;;;;;;;;;13.34;53.52;95217.06;5043259;28;20037;-62
2022/06/20 08:02:47;;;;;;;;;;;;;;;13.89;52.40;95224.88;5059997;28;20695;-61
2022/06/20 08:05:14;;;;;;;;;;;;;;;13.00;53.46;95230.41;5053608;28;19989;-61
2022/06/20 08:07:41;;;;;;;;;;;;;;;13.28;53.38;95232.91;5077316;28;19976;-61
2022/06/20 08:10:07;;;;;;;;;;;;;;;13.24;53.29;95228.16;5063425;28;19993;-62
2022/06/20 08:12:41;;;;;;;;;;;;;;;13.13;52.71;95235.75;5063848;28;20265;-61
2022/06/20 08:15:08;;;;;;;;;;;;;;;13.00;53.15;95241.09;5064602;28;20464;-62
2022/06/20 08:17:33;;;;;;;;;;;;;;;13.01;52.58;95245.41;5029439;28;20052;-61
2022/06/20 08:19:58;;;;;;;;;;;;;;;12.76;52.65;95253.94;5059406;28;19996;-62
2022/06/20 08:22:30;;;;;;;;;;;;;;;12.18;53.36;95263.16;5074625;28;20011;-63
2022/06/20 08:24:55;;;;;;;;;;;;;;;12.35;53.89;95268.97;5060795;28;19980;-61
2022/06/20 08:27:25;;;;;;;;;;;;;;;12.06;53.80;95273.50;5063313;28;19971;-60
2022/06/20 08:29:52;;;;;;;;;;;;;;;11.99;53.86;95281.47;5043972;28;20372;-60
2022/06/20 08:32:21;;;;;;;;;;;;;;;12.35;52.71;95291.19;5064833;28;19987;-60
2022/06/20 08:35:10;;;;;;;;;;;;;;;12.09;52.94;95295.31;5058575;28;19989;-61
2022/06/20 08:37:37;;;;;;;;;;;;;;;12.31;52.80;95302.44;5047129;28;20085;-60
2022/06/20 08:40:12;;;;;;;;;;;;;;;12.06;53.11;95326.84;5038210;28;20065;-61
2022/06/20 08:42:56;;;;;;;;;;;;;;;12.06;53.62;95330.41;5059994;28;20440;-63
2022/06/20 08:45:24;;;;;;;;;;;;;;;12.06;52.71;95326.84;5044414;28;20000;-62
2022/06/20 08:47:55;;;;;;;;;;;;;;;11.86;53.88;95332.88;5046041;28;19973;-62
2022/06/20 08:50:29;;;;;;;;;;;;;;;11.89;53.50;95337.81;5062571;28;20523;-62
2022/06/20 08:52:54;;;;;;;;;;;;;;;11.78;53.00;95344.53;5042976;28;19968;-62
2022/06/20 08:55:34;;;;;;;;;;;;;;;11.68;53.61;95362.69;5048211;28;19965;-62
2022/06/20 08:58:00;;;;;;;;;;;;;;;11.06;55.22;95368.38;5059996;28;19988;-62
2022/06/20 09:00:31;;;;;;;;;;;;;;;10.92;56.43;95370.06;5054033;28;19984;-62
2022/06/20 09:03:14;;;;;;;;;;;;;;;10.97;55.40;95360.50;5069295;28;19989;-62
2022/06/20 09:05:45;;;;;;;;;;;;;;;11.09;55.56;95379.50;5056296;28;20461;-62
2022/06/20 09:08:30;;;;;;;;;;;;;;;10.86;55.69;95372.47;5067878;28;20196;-61
2022/06/20 09:10:55;;;;;;;;;;;;;;;11.09;55.09;95363.53;5063773;28;20309;-61
2022/06/20 09:13:30;;;;;;;;;;;;;;;11.30;54.87;95380.56;5050018;28;19985;-60
2022/06/20 09:16:14;;;;;;;;;;;;;;;10.07;57.65;95379.94;5076258;28;19972;-60
2022/06/20 09:18:39;;;;;;;;;;;;;;;9.72;60.04;95391.03;5050712;28;19989;-60
2022/06/20 09:21:17;;;;;;;;;;;;;;;9.65;60.29;95378.63;5049720;28;20005;-61
2022/06/20 09:23:52;;;;;;;;;;;;;;;9.52;60.54;95393.31;5043497;28;20022;-64
2022/06/20 09:26:34;;;;;;;;;;;;;;;9.63;60.13;95380.63;5062413;28;19999;-61
2022/06/20 09:28:59;;;;;;;;;;;;;;;10.03;59.35;95381.28;5075068;28;19973;-61
2022/06/20 09:31:43;;;;;;;;;;;;;;;10.44;57.61;95387.25;5060685;28;20000;-61
2022/06/20 09:34:11;;;;;;;;;;;;;;;10.42;57.66;95382.13;5059320;28;20396;-61
2022/06/20 09:36:46;;;;;;;;;;;;;;;10.54;57.04;95393.13;5057450;28;19997;-63
2022/06/20 09:39:14;;;;;;;;;;;;;;;10.62;55.97;95389.56;5062781;28;19996;-61
2022/06/20 09:41:48;;;;;;;;;;;;;;;10.96;55.05;95392.66;5048686;28;20598;-61
2022/06/20 09:44:16;;;;;;;;;;;;;;;10.92;54.22;95407.34;5031560;28;19976;-61
2022/06/20 09:47:00;;;;;;;;;;;;;;;11.12;54.34;95386.31;5040327;28;20422;-62
2022/06/20 09:49:44;;;;;;;;;;;;;;;11.70;53.85;95377.47;5047077;28;20657;-61
2022/06/20 09:52:17;;;;;;;;;;;;;;;11.67;51.66;95395.69;5049631;28;20113;-62
2022/06/20 09:54:42;;;;;;;;;;;;;;;11.75;52.03;95393.75;5029768;28;20066;-62
2022/06/20 09:57:18;;;;;;;;;;;;;;;11.55;51.81;95398.88;5048321;28;20406;-61
2022/06/20 10:00:02;;;;;;;;;;;;;;;11.48;51.86;95412.13;5049556;28;20229;-66
2022/06/20 10:02:46;;;;;;;;;;;;;;;10.79;53.54;95432.81;5055632;28;20378;-60
2022/06/20 10:05:31;;;;;;;;;;;;;;;10.07;56.15;95435.00;5056027;28;20001;-62
2022/06/20 10:07:58;;;;;;;;;;;;;;;9.82;57.04;95429.81;5057107;28;20352;-62
2022/06/20 10:10:35;;;;;;;;;;;;;;;9.60;57.46;95448.25;5062587;28;20001;-61
2022/06/20 10:13:03;;;;;;;;;;;;;;;8.75;59.41;95453.25;5029710;28;19973;-63
2022/06/20 10:15:36;;;;;;;;;;;;;;;8.98;59.19;95461.38;5044013;28;19972;-62
2022/06/20 10:18:04;;;;;;;;;;;;;;;8.73;60.51;95461.41;5027263;28;19999;-61
2022/06/20 10:20:38;;;;;;;;;;;;;;;8.31;61.10;95460.66;5055680;28;19991;-62
2022/06/20 10:23:09;;;;;;;;;;;;;;;8.58;59.57;95455.97;5052738;28;20039;-62
2022/06/20 10:25:47;;;;;;;;;;;;;;;8.82;58.07;95460.41;5058272;28;19992;-63
2022/06/20 10:28:24;;;;;;;;;;;;;;;8.15;59.15;95464.13;5053231;28;19972;-61
2022/06/20 10:30:51;;;;;;;;;;;;;;;8.76;58.76;95457.56;5058601;28;20032;-62
2022/06/20 10:33:17;;;;;;;;;;;;;;;8.96;58.58;95468.66;5039707;28;20003;-62
2022/06/20 10:35:47;;;;;;;;;;;;;;;8.41;60.40;95460.47;5051383;28;19969;-61
2022/06/20 10:38:12;;;;;;;;;;;;;;;8.85;60.38;95453.06;5063109;28;19993;-62
2022/06/20 10:40:55;;;;;;;;;;;;;;;8.68;60.15;95461.09;5054490;28;20058;-62
2022/06/20 10:43:33;;;;;;;;;;;;;;;8.48;60.86;95450.84;5062906;28;19992;-62
2022/06/20 10:45:59;;;;;;;;;;;;;;;8.85;60.75;95466.34;5065957;28;20083;-66
2022/06/20 10:48:46;;;;;;;;;;;;;;;8.92;59.55;95480.59;5053149;28;20064;-62
2022/06/20 10:51:14;;;;;;;;;;;;;;;8.25;61.36;95485.19;5048602;28;19989;-62
2022/06/20 10:54:00;;;;;;;;;;;;;;;8.04;61.56;95497.97;5062524;28;19985;-64
2022/06/20 10:56:38;;;;;;;;;;;;;;;8.17;61.08;95509.88;5044354;28;20572;-63
2022/06/20 10:59:23;;;;;;;;;;;;;;;7.90;60.37;95510.03;5062262;28;20377;-63
2022/06/20 11:02:09;;;;;;;;;;;;;;;7.76;60.17;95518.59;5064117;28;20001;-62
2022/06/20 11:04:50;;;;;;;;;;;;;;;8.59;57.43;95521.31;5043854;28;19980;-63
2022/06/20 11:07:32;;;;;;;;;;;;;;;9.29;57.13;95516.31;5062616;28;20030;-62
2022/06/20 11:10:01;;;;;;;;;;;;;;;9.22;55.52;95520.69;5067387;28;19988;-63
2022/06/20 11:12:44;;;;;;;;;;;;;;;9.40;56.13;95517.81;5064795;28;19962;-62
2022/06/20 11:15:18;;;;;;;;;;;;;;;9.50;55.21;95522.91;5060092;28;19988;-62
2022/06/20 11:18:03;;;;;;;;;;;;;;;9.87;54.79;95509.06;5066719;28;20371;-59
2022/06/20 11:20:29;;;;;;;;;;;;;;;9.72;54.85;95507.16;5054437;28;20367;-63
2022/06/20 11:23:26;;;;;;;;;;;;;;;9.68;54.47;95506.69;5056618;28;19995;-62
2022/06/20 11:26:10;;;;;;;;;;;;;;;9.87;54.60;95501.94;5018278;28;19999;-63
2022/06/20 11:28:39;;;;;;;;;;;;;;;9.41;54.57;95500.84;5057992;28;20154;-62
2022/06/20 11:31:13;;;;;;;;;;;;;;;9.39;55.11;95502.84;5048988;28;19998;-63
2022/06/20 11:36:29;;;;;;;;;;;;;;;10.58;54.24;95479.59;5057652;28;20062;-59
2022/06/20 11:39:17;;;;;;;;;;;;;;;10.77;52.06;95493.38;5057531;28;20082;-59
2022/06/20 11:41:50;;;;;;;;;;;;;;;10.39;53.19;95496.91;5068700;28;20083;-59
2022/06/20 11:44:21;;;;;;;;;;;;;;;10.27;55.17;95493.03;5057527;28;20024;-59
2022/06/20 11:47:03;;;;;;;;;;;;;;;10.58;53.74;95494.75;5054735;28;20405;-60
2022/06/20 11:49:42;;;;;;;;;;;;;;;10.85;51.88;95503.94;5065173;28;20394;-59
2022/06/20 11:52:18;;;;;;;;;;;;;;;11.36;51.70;95497.06;5055119;28;19980;-59
2022/06/20 11:55:04;;;;;;;;;;;;;;;11.65;51.00;95505.22;5030156;28;20465;-59
2022/06/20 11:57:38;;;;;;;;;;;;;;;11.44;50.72;95508.66;5051742;28;19992;-59
2022/06/20 12:00:03;;;;;;;;;;;;;;;11.03;53.15;95512.59;5078341;28;20993;-59
2022/06/20 12:02:29;;;;;;;;;;;;;;;11.72;52.90;95508.78;5058429;28;19996;-63
2022/06/20 12:04:56;;;;;;;;;;;;;;;12.26;50.11;95506.69;5048011;28;19969;-63
2022/06/20 12:07:28;;;;;;;;;;;;;;;12.17;49.12;95505.16;5061432;28;19976;-62
2022/06/20 12:09:53;;;;;;;;;;;;;;;12.26;50.52;95520.03;5054431;28;20005;-64
2022/06/20 12:12:33;;;;;;;;;;;;;;;12.50;51.40;95517.97;5047632;28;20043;-63
2022/06/20 12:15:17;;;;;;;;;;;;;;;12.87;48.73;95509.84;5032485;28;20016;-63
2022/06/20 12:17:55;;;;;;;;;;;;;;;12.07;49.55;95520.66;5051699;28;20014;-63
2022/06/20 12:23:21;;;;;;;;;;;;;;;12.18;49.08;95509.50;5058467;28;20304;-63
2022/06/20 12:25:46;;;;;;;;;;;;;;;12.34;50.48;95497.72;5038038;28;20041;-64
2022/06/20 12:28:18;;;;;;;;;;;;;;;12.32;49.03;95486.41;5049117;28;20285;-64
2022/06/20 12:30:43;;;;;;;;;;;;;;;12.22;49.19;95493.91;5052345;28;20053;-63
2022/06/20 12:33:09;;;;;;;;;;;;;;;12.57;48.42;95493.19;5056847;28;20427;-64
2022/06/20 12:35:35;;;;;;;;;;;;;;;12.62;48.23;95496.09;5061069;28;19981;-63
2022/06/20 12:38:04;;;;;;;;;;;;;;;12.85;47.51;95497.69;5037061;28;20203;-64
2022/06/20 12:40:33;;;;;;;;;;;;;;;12.25;48.58;95537.06;5058773;28;19996;-63
2022/06/20 12:43:25;;;;;;;;;;;;;;;12.54;48.51;95516.56;5070431;28;19989;-63
2022/06/20 12:45:53;;;;;;;;;;;;;;;13.05;47.67;95509.34;5043295;28;20319;-63
2022/06/20 12:48:41;;;;;;;;;;;;;;;12.97;48.15;95511.31;5044532;28;20011;-64
2022/06/20 12:51:12;;;;;;;;;;;;;;;12.65;48.26;95520.56;5032899;28;19997;-64
2022/06/20 12:53:41;;;;;;;;;;;;;;;12.51;48.39;95524.16;5057233;28;20253;-64
2022/06/20 12:56:09;;;;;;;;;;;;;;;12.64;48.67;95531.44;5057535;28;20591;-63
2022/06/20 12:58:45;;;;;;;;;;;;;;;12.99;48.34;95528.00;5048584;28;19993;-63
2022/06/20 13:01:11;;;;;;;;;;;;;;;13.25;47.92;95516.66;5041219;28;19999;-64
2022/06/20 13:03:37;;;;;;;;;;;;;;;13.44;46.81;95504.41;5061351;28;20476;-63
2022/06/20 13:06:20;;;;;;;;;;;;;;;13.10;48.10;95511.44;5057327;28;19995;-64
2022/06/20 13:08:57;;;;;;;;;;;;;;;12.91;47.79;95512.94;5054466;28;19965;-64
2022/06/20 13:11:32;;;;;;;;;;;;;;;12.37;49.69;95521.34;5057369;28;20107;-63
2022/06/20 13:14:16;;;;;;;;;;;;;;;12.24;50.76;95521.25;5059408;28;19990;-64
2022/06/20 13:16:52;;;;;;;;;;;;;;;11.79;51.87;95518.72;5038406;28;19999;-64
2022/06/20 13:19:22;;;;;;;;;;;;;;;12.12;51.14;95524.44;5056246;28;19992;-66
2022/06/20 13:22:20;;;;;;;;;;;;;;;11.74;52.32;95519.28;5057649;28;20099;-64